sensor_id;sensor_type;location;lat;lon;timestamp;temperature;humidity
1021;DHT22;499;42.648;23.270;2023-05-16T00:01:59;11.90;99.90
1021;DHT22;499;42.648;23.270;2023-05-16T00:04:26;12.00;99.90
1021;DHT22;499;42.648;23.270;2023-05-16T00:06:55;12.10;99.90
1021;DHT22;499;42.648;23.270;2023-05-16T00:09:22;12.10;99.90
1021;DHT22;499;42.648;23.270;2023-05-16T00:11:49;12.10;99.90
1021;DHT22;499;42.648;23.270;2023-05-16T00:14:16;12.10;99.90
1021;DHT22;499;42.648;23.270;2023-05-16T00:16:43;12.10;99.90
1021;DHT22;499;42.648;23.270;2023-05-16T00:19:11;12.10;99.90
1021;DHT22;499;42.648;23.270;2023-05-16T00:21:39;12.10;99.90
1021;DHT22;499;42.648;23.270;2023-05-16T00:24:08;12.10;99.90
1021;DHT22;499;42.648;23.270;2023-05-16T00:26:35;12.20;99.90
1021;DHT22;499;42.648;23.270;2023-05-16T00:29:02;12.10;99.90
1021;DHT22;499;42.648;23.270;2023-05-16T00:31:29;12.10;99.90
1021;DHT22;499;42.648;23.270;2023-05-16T00:33:56;12.10;99.90
1021;DHT22;499;42.648;23.270;2023-05-16T00:36:23;12.20;99.90
1021;DHT22;499;42.648;23.270;2023-05-16T00:38:50;12.30;99.90
1021;DHT22;499;42.648;23.270;2023-05-16T00:41:19;12.40;99.90
1021;DHT22;499;42.648;23.270;2023-05-16T00:43:46;12.40;99.90
1021;DHT22;499;42.648;23.270;2023-05-16T00:46:13;12.50;99.90
1021;DHT22;499;42.648;23.270;2023-05-16T00:48:40;12.60;99.90
1021;DHT22;499;42.648;23.270;2023-05-16T00:51:07;12.60;99.90
1021;DHT22;499;42.648;23.270;2023-05-16T00:53:34;12.60;99.90
1021;DHT22;499;42.648;23.270;2023-05-16T00:56:02;12.60;99.90
1021;DHT22;499;42.648;23.270;2023-05-16T00:58:31;12.50;99.90
1021;DHT22;499;42.648;23.270;2023-05-16T01:00:59;12.60;99.90
1021;DHT22;499;42.648;23.270;2023-05-16T01:03:27;12.60;99.90
1021;DHT22;499;42.648;23.270;2023-05-16T01:05:54;12.70;99.90
1021;DHT22;499;42.648;23.270;2023-05-16T01:08:21;12.70;99.90
1021;DHT22;499;42.648;23.270;2023-05-16T01:10:57;12.60;99.90
1021;DHT22;499;42.648;23.270;2023-05-16T01:13:32;12.70;99.90
1021;DHT22;499;42.648;23.270;2023-05-16T01:16:08;12.80;99.90
1021;DHT22;499;42.648;23.270;2023-05-16T01:18:41;12.70;99.90
1021;DHT22;499;42.648;23.270;2023-05-16T01:21:14;12.60;99.90
1021;DHT22;499;42.648;23.270;2023-05-16T01:23:50;12.60;99.90
1021;DHT22;499;42.648;23.270;2023-05-16T01:26:21;12.70;99.90
1021;DHT22;499;42.648;23.270;2023-05-16T01:28:49;12.70;99.90
1021;DHT22;499;42.648;23.270;2023-05-16T01:31:17;12.70;99.90
1021;DHT22;499;42.648;23.270;2023-05-16T01:33:45;12.60;99.90
1021;DHT22;499;42.648;23.270;2023-05-16T01:36:19;12.50;99.90
1021;DHT22;499;42.648;23.270;2023-05-16T01:38:57;12.50;99.90
1021;DHT22;499;42.648;23.270;2023-05-16T01:41:33;12.50;99.90
1021;DHT22;499;42.648;23.270;2023-05-16T01:44:04;12.30;99.90
1021;DHT22;499;42.648;23.270;2023-05-16T01:46:37;12.60;99.90
1021;DHT22;499;42.648;23.270;2023-05-16T01:49:13;12.60;99.90
1021;DHT22;499;42.648;23.270;2023-05-16T01:51:46;12.60;99.90
1021;DHT22;499;42.648;23.270;2023-05-16T01:54:17;12.60;99.90
1021;DHT22;499;42.648;23.270;2023-05-16T01:56:51;12.60;99.90
1021;DHT22;499;42.648;23.270;2023-05-16T01:59:20;12.60;99.90
1021;DHT22;499;42.648;23.270;2023-05-16T02:01:47;12.70;99.90
1021;DHT22;499;42.648;23.270;2023-05-16T02:04:14;12.60;99.90
1021;DHT22;499;42.648;23.270;2023-05-16T02:06:41;12.50;99.90
1021;DHT22;499;42.648;23.270;2023-05-16T02:09:09;12.50;99.90
1021;DHT22;499;42.648;23.270;2023-05-16T02:11:36;12.50;99.90
1021;DHT22;499;42.648;23.270;2023-05-16T02:14:04;12.40;99.90
1021;DHT22;499;42.648;23.270;2023-05-16T02:16:31;12.40;99.90
1021;DHT22;499;42.648;23.270;2023-05-16T02:18:58;12.40;99.90
1021;DHT22;499;42.648;23.270;2023-05-16T02:21:25;12.40;99.90
1021;DHT22;499;42.648;23.270;2023-05-16T02:23:52;12.40;99.90
1021;DHT22;499;42.648;23.270;2023-05-16T02:26:19;12.30;99.90
1021;DHT22;499;42.648;23.270;2023-05-16T02:28:46;12.20;99.90
1021;DHT22;499;42.648;23.270;2023-05-16T02:31:26;12.20;99.90
1021;DHT22;499;42.648;23.270;2023-05-16T02:33:53;12.10;99.90
1021;DHT22;499;42.648;23.270;2023-05-16T02:36:20;12.10;99.90
1021;DHT22;499;42.648;23.270;2023-05-16T02:38:47;12.00;99.90
1021;DHT22;499;42.648;23.270;2023-05-16T02:41:14;12.00;99.90
1021;DHT22;499;42.648;23.270;2023-05-16T02:43:41;12.20;99.90
1021;DHT22;499;42.648;23.270;2023-05-16T02:46:22;12.20;99.90
1021;DHT22;499;42.648;23.270;2023-05-16T02:48:51;12.20;99.90
1021;DHT22;499;42.648;23.270;2023-05-16T02:51:20;12.30;99.90
1021;DHT22;499;42.648;23.270;2023-05-16T02:53:47;12.20;99.90
1021;DHT22;499;42.648;23.270;2023-05-16T02:56:14;12.10;99.90
1021;DHT22;499;42.648;23.270;2023-05-16T02:58:41;12.10;99.90
1021;DHT22;499;42.648;23.270;2023-05-16T03:01:08;12.10;99.90
1021;DHT22;499;42.648;23.270;2023-05-16T03:03:36;12.10;99.90
1021;DHT22;499;42.648;23.270;2023-05-16T03:06:04;12.10;99.90
1021;DHT22;499;42.648;23.270;2023-05-16T03:08:31;12.10;99.90
1021;DHT22;499;42.648;23.270;2023-05-16T03:10:59;12.10;99.90
1021;DHT22;499;42.648;23.270;2023-05-16T03:13:26;12.10;99.90
1021;DHT22;499;42.648;23.270;2023-05-16T03:15:55;12.20;99.90
1021;DHT22;499;42.648;23.270;2023-05-16T03:18:22;12.30;99.90
1021;DHT22;499;42.648;23.270;2023-05-16T03:20:49;12.10;99.90
1021;DHT22;499;42.648;23.270;2023-05-16T03:23:19;12.10;99.90
1021;DHT22;499;42.648;23.270;2023-05-16T03:25:46;12.10;99.90
1021;DHT22;499;42.648;23.270;2023-05-16T03:28:15;12.10;99.90
1021;DHT22;499;42.648;23.270;2023-05-16T03:30:42;12.00;99.90
1021;DHT22;499;42.648;23.270;2023-05-16T03:33:09;12.10;99.90
1021;DHT22;499;42.648;23.270;2023-05-16T03:35:37;12.10;99.90
1021;DHT22;499;42.648;23.270;2023-05-16T03:38:04;12.00;99.90
1021;DHT22;499;42.648;23.270;2023-05-16T03:40:33;12.10;99.90
1021;DHT22;499;42.648;23.270;2023-05-16T03:43:00;12.10;99.90
1021;DHT22;499;42.648;23.270;2023-05-16T03:45:28;12.10;99.90
1021;DHT22;499;42.648;23.270;2023-05-16T03:47:55;12.10;99.90
1021;DHT22;499;42.648;23.270;2023-05-16T03:50:23;12.10;99.90
1021;DHT22;499;42.648;23.270;2023-05-16T03:52:50;12.10;99.90
1021;DHT22;499;42.648;23.270;2023-05-16T03:55:18;12.20;99.90
1021;DHT22;499;42.648;23.270;2023-05-16T03:57:47;12.20;99.90
1021;DHT22;499;42.648;23.270;2023-05-16T04:00:15;12.30;99.90
1021;DHT22;499;42.648;23.270;2023-05-16T04:02:42;12.20;99.90
1021;DHT22;499;42.648;23.270;2023-05-16T04:05:10;12.20;99.90
1021;DHT22;499;42.648;23.270;2023-05-16T04:07:38;12.30;99.90
1021;DHT22;499;42.648;23.270;2023-05-16T04:10:06;12.30;99.90
1021;DHT22;499;42.648;23.270;2023-05-16T04:12:33;12.30;99.90
1021;DHT22;499;42.648;23.270;2023-05-16T04:15:02;12.30;99.90
1021;DHT22;499;42.648;23.270;2023-05-16T04:17:29;12.30;99.90
1021;DHT22;499;42.648;23.270;2023-05-16T04:19:56;12.30;99.90
1021;DHT22;499;42.648;23.270;2023-05-16T04:22:23;12.30;99.90
1021;DHT22;499;42.648;23.270;2023-05-16T04:24:50;12.40;99.90
1021;DHT22;499;42.648;23.270;2023-05-16T04:27:17;12.50;99.90
1021;DHT22;499;42.648;23.270;2023-05-16T04:29:44;12.50;99.90
1021;DHT22;499;42.648;23.270;2023-05-16T04:32:13;12.60;99.90
1021;DHT22;499;42.648;23.270;2023-05-16T04:34:40;12.50;99.90
1021;DHT22;499;42.648;23.270;2023-05-16T04:37:08;12.60;99.90
1021;DHT22;499;42.648;23.270;2023-05-16T04:39:36;12.70;99.90
1021;DHT22;499;42.648;23.270;2023-05-16T04:42:03;12.90;99.90
1021;DHT22;499;42.648;23.270;2023-05-16T04:44:30;13.00;99.90
1021;DHT22;499;42.648;23.270;2023-05-16T04:46:58;13.00;99.90
1021;DHT22;499;42.648;23.270;2023-05-16T04:49:27;13.00;99.90
1021;DHT22;499;42.648;23.270;2023-05-16T04:51:54;12.70;99.90
1021;DHT22;499;42.648;23.270;2023-05-16T04:54:21;12.70;99.90
1021;DHT22;499;42.648;23.270;2023-05-16T04:56:48;12.70;99.90
1021;DHT22;499;42.648;23.270;2023-05-16T04:59:15;12.80;99.90
1021;DHT22;499;42.648;23.270;2023-05-16T05:01:42;12.80;99.90
1021;DHT22;499;42.648;23.270;2023-05-16T05:04:09;12.80;99.90
1021;DHT22;499;42.648;23.270;2023-05-16T05:06:38;12.80;99.90
1021;DHT22;499;42.648;23.270;2023-05-16T05:09:05;12.80;99.90
1021;DHT22;499;42.648;23.270;2023-05-16T05:11:33;12.80;99.90
1021;DHT22;499;42.648;23.270;2023-05-16T05:14:00;12.80;99.90
1021;DHT22;499;42.648;23.270;2023-05-16T05:16:27;12.70;99.90
1021;DHT22;499;42.648;23.270;2023-05-16T05:18:54;12.80;99.90
1021;DHT22;499;42.648;23.270;2023-05-16T05:21:21;12.90;99.90
1021;DHT22;499;42.648;23.270;2023-05-16T05:23:51;13.10;99.90
1021;DHT22;499;42.648;23.270;2023-05-16T05:26:18;13.00;99.90
1021;DHT22;499;42.648;23.270;2023-05-16T05:28:47;13.00;99.90
1021;DHT22;499;42.648;23.270;2023-05-16T05:31:14;13.20;99.90
1021;DHT22;499;42.648;23.270;2023-05-16T05:33:41;13.30;99.90
1021;DHT22;499;42.648;23.270;2023-05-16T05:36:08;13.20;99.90
1021;DHT22;499;42.648;23.270;2023-05-16T05:38:35;13.30;99.90
1021;DHT22;499;42.648;23.270;2023-05-16T05:41:04;13.20;99.90
1021;DHT22;499;42.648;23.270;2023-05-16T05:43:32;13.30;99.90
1021;DHT22;499;42.648;23.270;2023-05-16T05:45:59;13.30;99.90
1021;DHT22;499;42.648;23.270;2023-05-16T05:48:26;13.40;99.90
1021;DHT22;499;42.648;23.270;2023-05-16T05:50:54;13.40;99.80
1021;DHT22;499;42.648;23.270;2023-05-16T05:53:21;13.50;97.20
1021;DHT22;499;42.648;23.270;2023-05-16T05:55:48;13.50;95.80
1021;DHT22;499;42.648;23.270;2023-05-16T05:58:17;13.50;95.70
1021;DHT22;499;42.648;23.270;2023-05-16T06:00:44;13.50;94.20
1021;DHT22;499;42.648;23.270;2023-05-16T06:03:11;13.60;92.30
1021;DHT22;499;42.648;23.270;2023-05-16T06:05:39;13.60;91.60
1021;DHT22;499;42.648;23.270;2023-05-16T06:08:06;13.60;91.50
1021;DHT22;499;42.648;23.270;2023-05-16T06:10:33;13.70;93.30
1021;DHT22;499;42.648;23.270;2023-05-16T06:13:00;13.80;91.40
1021;DHT22;499;42.648;23.270;2023-05-16T06:15:28;13.90;89.90
1021;DHT22;499;42.648;23.270;2023-05-16T06:17:56;13.90;90.30
1021;DHT22;499;42.648;23.270;2023-05-16T06:20:23;14.00;89.40
1021;DHT22;499;42.648;23.270;2023-05-16T06:22:51;14.10;90.40
1021;DHT22;499;42.648;23.270;2023-05-16T06:25:18;14.10;90.40
1021;DHT22;499;42.648;23.270;2023-05-16T06:27:45;14.10;88.70
1021;DHT22;499;42.648;23.270;2023-05-16T06:30:12;14.20;87.20
1021;DHT22;499;42.648;23.270;2023-05-16T06:32:44;14.20;86.50
1021;DHT22;499;42.648;23.270;2023-05-16T06:35:15;14.10;83.80
1021;DHT22;499;42.648;23.270;2023-05-16T06:37:42;14.20;81.90
1021;DHT22;499;42.648;23.270;2023-05-16T06:40:10;14.20;78.80
1021;DHT22;499;42.648;23.270;2023-05-16T06:42:37;14.30;76.20
1021;DHT22;499;42.648;23.270;2023-05-16T06:45:05;14.30;74.60
1021;DHT22;499;42.648;23.270;2023-05-16T06:47:33;14.40;74.60
1021;DHT22;499;42.648;23.270;2023-05-16T06:50:01;14.30;74.80
1021;DHT22;499;42.648;23.270;2023-05-16T06:52:28;14.40;77.40
1021;DHT22;499;42.648;23.270;2023-05-16T06:54:55;14.60;77.50
1021;DHT22;499;42.648;23.270;2023-05-16T06:57:22;14.50;77.40
1021;DHT22;499;42.648;23.270;2023-05-16T06:59:49;14.60;78.00
1021;DHT22;499;42.648;23.270;2023-05-16T07:02:16;14.60;77.50
1021;DHT22;499;42.648;23.270;2023-05-16T07:04:43;14.50;71.50
1021;DHT22;499;42.648;23.270;2023-05-16T07:07:11;14.60;70.50
1021;DHT22;499;42.648;23.270;2023-05-16T07:09:38;14.70;71.30
1021;DHT22;499;42.648;23.270;2023-05-16T07:12:06;14.80;68.10
1021;DHT22;499;42.648;23.270;2023-05-16T07:14:33;14.90;63.30
1021;DHT22;499;42.648;23.270;2023-05-16T07:17:01;15.10;62.80
1021;DHT22;499;42.648;23.270;2023-05-16T07:19:28;15.20;59.90
1021;DHT22;499;42.648;23.270;2023-05-16T07:21:55;15.40;60.00
1021;DHT22;499;42.648;23.270;2023-05-16T07:24:23;15.30;61.30
1021;DHT22;499;42.648;23.270;2023-05-16T07:26:50;15.50;56.50
1021;DHT22;499;42.648;23.270;2023-05-16T07:29:17;15.60;55.10
1021;DHT22;499;42.648;23.270;2023-05-16T07:31:45;15.60;54.60
1021;DHT22;499;42.648;23.270;2023-05-16T07:34:12;15.50;50.50
1021;DHT22;499;42.648;23.270;2023-05-16T07:36:39;15.60;53.70
1021;DHT22;499;42.648;23.270;2023-05-16T07:39:06;15.60;56.40
1021;DHT22;499;42.648;23.270;2023-05-16T07:41:34;15.70;58.60
1021;DHT22;499;42.648;23.270;2023-05-16T07:44:01;15.70;56.40
1021;DHT22;499;42.648;23.270;2023-05-16T07:46:28;15.90;50.90
1021;DHT22;499;42.648;23.270;2023-05-16T07:48:55;16.00;50.80
1021;DHT22;499;42.648;23.270;2023-05-16T07:51:22;15.80;49.00
1021;DHT22;499;42.648;23.270;2023-05-16T07:53:49;16.00;49.90
1021;DHT22;499;42.648;23.270;2023-05-16T07:56:16;16.20;49.50
1021;DHT22;499;42.648;23.270;2023-05-16T07:58:45;16.30;47.90
1021;DHT22;499;42.648;23.270;2023-05-16T08:01:13;16.50;48.90
1021;DHT22;499;42.648;23.270;2023-05-16T08:03:41;16.70;47.70
1021;DHT22;499;42.648;23.270;2023-05-16T08:06:08;16.90;44.70
1021;DHT22;499;42.648;23.270;2023-05-16T08:08:35;17.00;40.50
1021;DHT22;499;42.648;23.270;2023-05-16T08:11:02;17.00;41.90
1021;DHT22;499;42.648;23.270;2023-05-16T08:13:30;17.00;42.80
1021;DHT22;499;42.648;23.270;2023-05-16T08:15:58;17.10;42.60
1021;DHT22;499;42.648;23.270;2023-05-16T08:18:25;17.30;42.70
1021;DHT22;499;42.648;23.270;2023-05-16T08:20:52;17.40;42.20
1021;DHT22;499;42.648;23.270;2023-05-16T08:23:19;17.60;42.30
1021;DHT22;499;42.648;23.270;2023-05-16T08:25:46;17.60;39.20
1021;DHT22;499;42.648;23.270;2023-05-16T08:28:13;17.80;38.80
1021;DHT22;499;42.648;23.270;2023-05-16T08:30:41;17.70;37.70
1021;DHT22;499;42.648;23.270;2023-05-16T08:33:09;17.60;37.60
1021;DHT22;499;42.648;23.270;2023-05-16T08:35:36;17.80;37.70
1021;DHT22;499;42.648;23.270;2023-05-16T08:38:07;17.90;35.00
1021;DHT22;499;42.648;23.270;2023-05-16T08:40:34;17.90;35.00
1021;DHT22;499;42.648;23.270;2023-05-16T08:43:02;17.80;35.20
1021;DHT22;499;42.648;23.270;2023-05-16T08:45:30;17.90;35.50
1021;DHT22;499;42.648;23.270;2023-05-16T08:48:00;17.90;36.20
1021;DHT22;499;42.648;23.270;2023-05-16T08:50:31;18.10;35.90
1021;DHT22;499;42.648;23.270;2023-05-16T08:53:04;18.30;35.10
1021;DHT22;499;42.648;23.270;2023-05-16T08:55:32;18.50;33.40
1021;DHT22;499;42.648;23.270;2023-05-16T08:58:00;18.70;31.40
1021;DHT22;499;42.648;23.270;2023-05-16T09:00:27;18.70;31.60
1021;DHT22;499;42.648;23.270;2023-05-16T09:02:56;18.70;29.90
1021;DHT22;499;42.648;23.270;2023-05-16T09:05:23;18.70;29.90
1021;DHT22;499;42.648;23.270;2023-05-16T09:07:52;18.90;30.50
1021;DHT22;499;42.648;23.270;2023-05-16T09:10:20;18.90;30.10
1021;DHT22;499;42.648;23.270;2023-05-16T09:12:47;19.10;29.20
1021;DHT22;499;42.648;23.270;2023-05-16T09:15:16;19.30;29.50
1021;DHT22;499;42.648;23.270;2023-05-16T09:17:44;19.50;29.70
1021;DHT22;499;42.648;23.270;2023-05-16T09:20:13;19.70;29.80
1021;DHT22;499;42.648;23.270;2023-05-16T09:22:49;20.00;30.00
1021;DHT22;499;42.648;23.270;2023-05-16T09:25:19;20.30;29.70
1021;DHT22;499;42.648;23.270;2023-05-16T09:27:46;20.50;28.10
1021;DHT22;499;42.648;23.270;2023-05-16T09:30:14;20.70;26.90
1021;DHT22;499;42.648;23.270;2023-05-16T09:32:44;20.80;26.70
1021;DHT22;499;42.648;23.270;2023-05-16T09:35:14;20.80;26.70
1021;DHT22;499;42.648;23.270;2023-05-16T09:37:44;20.80;25.30
1021;DHT22;499;42.648;23.270;2023-05-16T09:40:12;20.80;26.10
1021;DHT22;499;42.648;23.270;2023-05-16T09:42:41;20.90;25.30
1021;DHT22;499;42.648;23.270;2023-05-16T09:45:11;20.60;24.60
1021;DHT22;499;42.648;23.270;2023-05-16T09:47:39;20.40;26.40
1021;DHT22;499;42.648;23.270;2023-05-16T09:50:12;20.10;25.30
1021;DHT22;499;42.648;23.270;2023-05-16T09:52:40;20.00;25.20
1021;DHT22;499;42.648;23.270;2023-05-16T09:55:07;20.00;25.50
1021;DHT22;499;42.648;23.270;2023-05-16T09:57:36;20.10;25.90
1021;DHT22;499;42.648;23.270;2023-05-16T10:00:09;20.30;26.10
1021;DHT22;499;42.648;23.270;2023-05-16T10:02:38;20.20;25.80
1021;DHT22;499;42.648;23.270;2023-05-16T10:05:05;20.10;26.10
1021;DHT22;499;42.648;23.270;2023-05-16T10:07:33;20.10;26.20
1021;DHT22;499;42.648;23.270;2023-05-16T10:10:05;19.90;27.00
1021;DHT22;499;42.648;23.270;2023-05-16T10:12:32;20.00;27.10
1021;DHT22;499;42.648;23.270;2023-05-16T10:15:00;20.10;27.10
1021;DHT22;499;42.648;23.270;2023-05-16T10:17:34;20.20;26.80
1021;DHT22;499;42.648;23.270;2023-05-16T10:20:05;20.00;27.10
1021;DHT22;499;42.648;23.270;2023-05-16T10:22:34;19.90;27.30
1021;DHT22;499;42.648;23.270;2023-05-16T10:25:11;19.80;27.70
1021;DHT22;499;42.648;23.270;2023-05-16T10:27:38;19.70;28.30
1021;DHT22;499;42.648;23.270;2023-05-16T10:30:07;19.60;28.20
1021;DHT22;499;42.648;23.270;2023-05-16T10:32:37;19.40;29.50
1021;DHT22;499;42.648;23.270;2023-05-16T10:35:06;19.10;30.00
1021;DHT22;499;42.648;23.270;2023-05-16T10:37:34;18.80;30.30
1021;DHT22;499;42.648;23.270;2023-05-16T10:40:02;18.70;33.10
1021;DHT22;499;42.648;23.270;2023-05-16T10:42:31;18.70;32.40
1021;DHT22;499;42.648;23.270;2023-05-16T10:45:08;18.70;35.00
1021;DHT22;499;42.648;23.270;2023-05-16T10:47:50;18.80;33.70
1021;DHT22;499;42.648;23.270;2023-05-16T10:50:33;18.90;32.70
1021;DHT22;499;42.648;23.270;2023-05-16T10:53:17;18.90;34.50
1021;DHT22;499;42.648;23.270;2023-05-16T10:56:06;19.10;33.00
1021;DHT22;499;42.648;23.270;2023-05-16T10:58:41;19.30;32.20
1021;DHT22;499;42.648;23.270;2023-05-16T11:01:19;19.20;32.10
1021;DHT22;499;42.648;23.270;2023-05-16T11:04:15;19.30;31.30
1021;DHT22;499;42.648;23.270;2023-05-16T11:07:00;19.50;30.30
1021;DHT22;499;42.648;23.270;2023-05-16T11:09:27;19.40;30.60
1021;DHT22;499;42.648;23.270;2023-05-16T11:12:03;19.30;30.30
1021;DHT22;499;42.648;23.270;2023-05-16T11:14:37;19.30;32.20
1021;DHT22;499;42.648;23.270;2023-05-16T11:17:09;19.30;31.30
1021;DHT22;499;42.648;23.270;2023-05-16T11:19:41;19.30;30.40
1021;DHT22;499;42.648;23.270;2023-05-16T11:22:20;19.50;31.60
1021;DHT22;499;42.648;23.270;2023-05-16T11:24:52;19.60;32.20
1021;DHT22;499;42.648;23.270;2023-05-16T11:27:25;19.70;29.00
1021;DHT22;499;42.648;23.270;2023-05-16T11:29:54;19.70;29.10
1021;DHT22;499;42.648;23.270;2023-05-16T11:32:22;19.70;29.80
1021;DHT22;499;42.648;23.270;2023-05-16T11:34:51;19.60;30.30
1021;DHT22;499;42.648;23.270;2023-05-16T11:37:19;19.50;29.70
1021;DHT22;499;42.648;23.270;2023-05-16T11:39:47;19.40;29.50
1021;DHT22;499;42.648;23.270;2023-05-16T11:42:14;19.40;29.50
1021;DHT22;499;42.648;23.270;2023-05-16T11:44:42;19.30;29.50
1021;DHT22;499;42.648;23.270;2023-05-16T11:47:10;19.30;29.50
1021;DHT22;499;42.648;23.270;2023-05-16T11:49:37;19.30;29.90
1021;DHT22;499;42.648;23.270;2023-05-16T11:52:07;19.50;30.00
1021;DHT22;499;42.648;23.270;2023-05-16T11:54:35;19.60;29.00
1021;DHT22;499;42.648;23.270;2023-05-16T11:57:02;19.70;29.80
1021;DHT22;499;42.648;23.270;2023-05-16T11:59:30;19.70;28.60
1021;DHT22;499;42.648;23.270;2023-05-16T12:01:57;19.80;28.10
1021;DHT22;499;42.648;23.270;2023-05-16T12:04:24;19.90;28.10
1021;DHT22;499;42.648;23.270;2023-05-16T12:06:58;19.90;28.50
1021;DHT22;499;42.648;23.270;2023-05-16T12:09:27;20.30;29.00
1021;DHT22;499;42.648;23.270;2023-05-16T12:11:55;20.50;27.60
1021;DHT22;499;42.648;23.270;2023-05-16T12:14:23;20.70;28.30
1021;DHT22;499;42.648;23.270;2023-05-16T12:16:51;21.10;28.00
1021;DHT22;499;42.648;23.270;2023-05-16T12:19:20;21.40;27.00
1021;DHT22;499;42.648;23.270;2023-05-16T12:21:51;21.60;26.40
1021;DHT22;499;42.648;23.270;2023-05-16T12:24:18;21.70;24.50
1021;DHT22;499;42.648;23.270;2023-05-16T12:26:47;21.90;25.20
1021;DHT22;499;42.648;23.270;2023-05-16T12:29:14;22.00;24.50
1021;DHT22;499;42.648;23.270;2023-05-16T12:31:41;22.00;23.50
1021;DHT22;499;42.648;23.270;2023-05-16T12:34:15;21.60;24.30
1021;DHT22;499;42.648;23.270;2023-05-16T12:36:42;21.70;25.40
1021;DHT22;499;42.648;23.270;2023-05-16T12:39:11;21.50;24.70
1021;DHT22;499;42.648;23.270;2023-05-16T12:41:40;21.70;24.90
1021;DHT22;499;42.648;23.270;2023-05-16T12:44:13;21.50;24.90
1021;DHT22;499;42.648;23.270;2023-05-16T12:46:43;21.50;25.10
1021;DHT22;499;42.648;23.270;2023-05-16T12:49:11;21.40;25.30
1021;DHT22;499;42.648;23.270;2023-05-16T12:51:39;21.40;26.20
1021;DHT22;499;42.648;23.270;2023-05-16T12:54:08;21.30;26.60
1021;DHT22;499;42.648;23.270;2023-05-16T12:56:36;20.90;26.70
1021;DHT22;499;42.648;23.270;2023-05-16T12:59:03;20.40;27.50
1021;DHT22;499;42.648;23.270;2023-05-16T13:01:32;20.20;28.50
1021;DHT22;499;42.648;23.270;2023-05-16T13:03:59;20.20;29.00
1021;DHT22;499;42.648;23.270;2023-05-16T13:06:26;19.80;29.80
1021;DHT22;499;42.648;23.270;2023-05-16T13:08:53;19.50;30.90
1021;DHT22;499;42.648;23.270;2023-05-16T13:11:22;19.40;33.00
1021;DHT22;499;42.648;23.270;2023-05-16T13:13:49;19.40;32.90
1021;DHT22;499;42.648;23.270;2023-05-16T13:16:16;19.30;32.70
1021;DHT22;499;42.648;23.270;2023-05-16T13:18:45;19.40;33.30
1021;DHT22;499;42.648;23.270;2023-05-16T13:21:12;19.40;33.40
1021;DHT22;499;42.648;23.270;2023-05-16T13:23:39;19.30;34.20
1021;DHT22;499;42.648;23.270;2023-05-16T13:26:06;19.30;34.20
1021;DHT22;499;42.648;23.270;2023-05-16T13:28:34;19.10;34.60
1021;DHT22;499;42.648;23.270;2023-05-16T13:31:02;19.10;35.90
1021;DHT22;499;42.648;23.270;2023-05-16T13:33:29;19.00;38.00
1021;DHT22;499;42.648;23.270;2023-05-16T13:35:57;19.00;40.00
1021;DHT22;499;42.648;23.270;2023-05-16T13:38:24;19.00;40.60
1021;DHT22;499;42.648;23.270;2023-05-16T13:40:51;19.30;39.90
1021;DHT22;499;42.648;23.270;2023-05-16T13:43:19;19.20;40.30
1021;DHT22;499;42.648;23.270;2023-05-16T13:45:46;19.20;42.20
1021;DHT22;499;42.648;23.270;2023-05-16T13:48:13;19.10;43.70
1021;DHT22;499;42.648;23.270;2023-05-16T13:50:40;19.00;46.70
1021;DHT22;499;42.648;23.270;2023-05-16T13:53:08;19.00;45.50
1021;DHT22;499;42.648;23.270;2023-05-16T13:55:35;19.20;43.80
1021;DHT22;499;42.648;23.270;2023-05-16T13:58:02;19.00;44.20
1021;DHT22;499;42.648;23.270;2023-05-16T14:00:29;18.70;43.60
1021;DHT22;499;42.648;23.270;2023-05-16T14:02:56;18.60;45.60
1021;DHT22;499;42.648;23.270;2023-05-16T14:05:23;18.50;47.30
1021;DHT22;499;42.648;23.270;2023-05-16T14:07:51;18.50;47.90
1021;DHT22;499;42.648;23.270;2023-05-16T14:10:19;18.40;49.60
1021;DHT22;499;42.648;23.270;2023-05-16T14:12:46;18.20;54.90
1021;DHT22;499;42.648;23.270;2023-05-16T14:15:13;18.20;58.70
1021;DHT22;499;42.648;23.270;2023-05-16T14:17:40;18.30;68.20
1021;DHT22;499;42.648;23.270;2023-05-16T14:20:08;18.40;71.50
1021;DHT22;499;42.648;23.270;2023-05-16T14:22:35;18.60;73.60
1021;DHT22;499;42.648;23.270;2023-05-16T14:25:04;18.70;73.00
1021;DHT22;499;42.648;23.270;2023-05-16T14:27:33;18.80;75.90
1021;DHT22;499;42.648;23.270;2023-05-16T14:30:00;19.00;76.60
1021;DHT22;499;42.648;23.270;2023-05-16T14:32:27;19.10;79.90
1021;DHT22;499;42.648;23.270;2023-05-16T14:34:54;19.10;81.20
1021;DHT22;499;42.648;23.270;2023-05-16T14:37:21;18.80;81.70
1021;DHT22;499;42.648;23.270;2023-05-16T14:39:48;18.60;86.20
1021;DHT22;499;42.648;23.270;2023-05-16T14:42:15;18.20;71.20
1021;DHT22;499;42.648;23.270;2023-05-16T14:44:45;17.70;65.00
1021;DHT22;499;42.648;23.270;2023-05-16T14:47:12;17.50;70.80
1021;DHT22;499;42.648;23.270;2023-05-16T14:49:39;17.30;76.60
1021;DHT22;499;42.648;23.270;2023-05-16T14:52:06;17.20;83.60
1021;DHT22;499;42.648;23.270;2023-05-16T14:54:33;17.20;89.70
1021;DHT22;499;42.648;23.270;2023-05-16T14:57:01;17.30;90.90
1021;DHT22;499;42.648;23.270;2023-05-16T14:59:29;17.50;92.80
1021;DHT22;499;42.648;23.270;2023-05-16T15:01:57;17.60;94.20
1021;DHT22;499;42.648;23.270;2023-05-16T15:04:26;17.60;92.70
1021;DHT22;499;42.648;23.270;2023-05-16T15:06:53;17.70;94.10
1021;DHT22;499;42.648;23.270;2023-05-16T15:09:20;17.60;96.10
1021;DHT22;499;42.648;23.270;2023-05-16T15:11:47;17.80;98.60
1021;DHT22;499;42.648;23.270;2023-05-16T15:14:14;17.90;98.20
1021;DHT22;499;42.648;23.270;2023-05-16T15:16:41;17.70;98.10
1021;DHT22;499;42.648;23.270;2023-05-16T15:19:10;17.60;99.50
1021;DHT22;499;42.648;23.270;2023-05-16T15:21:37;17.40;99.90
1021;DHT22;499;42.648;23.270;2023-05-16T15:24:04;17.30;99.90
1021;DHT22;499;42.648;23.270;2023-05-16T15:26:32;17.20;99.90
1021;DHT22;499;42.648;23.270;2023-05-16T15:29:00;17.10;99.90
1021;DHT22;499;42.648;23.270;2023-05-16T15:31:27;17.10;99.90
1021;DHT22;499;42.648;23.270;2023-05-16T15:33:56;17.00;99.90
1021;DHT22;499;42.648;23.270;2023-05-16T15:36:24;17.00;99.90
1021;DHT22;499;42.648;23.270;2023-05-16T15:38:51;16.90;99.90
1021;DHT22;499;42.648;23.270;2023-05-16T15:41:19;16.80;99.90
1021;DHT22;499;42.648;23.270;2023-05-16T15:43:46;16.90;99.90
1021;DHT22;499;42.648;23.270;2023-05-16T15:46:13;17.00;99.90
1021;DHT22;499;42.648;23.270;2023-05-16T15:48:40;16.90;99.90
1021;DHT22;499;42.648;23.270;2023-05-16T15:51:10;17.10;99.90
1021;DHT22;499;42.648;23.270;2023-05-16T15:53:39;17.20;99.90
1021;DHT22;499;42.648;23.270;2023-05-16T15:56:06;17.30;99.90
1021;DHT22;499;42.648;23.270;2023-05-16T15:58:35;17.30;99.90
1021;DHT22;499;42.648;23.270;2023-05-16T16:01:02;17.40;99.90
1021;DHT22;499;42.648;23.270;2023-05-16T16:03:29;17.40;99.90
1021;DHT22;499;42.648;23.270;2023-05-16T16:05:56;17.40;99.90
1021;DHT22;499;42.648;23.270;2023-05-16T16:08:23;17.40;99.90
1021;DHT22;499;42.648;23.270;2023-05-16T16:10:51;17.30;98.70